Terminal Aerodrome Forecast
Issued by NWS Buffalo, NY

Home | Current Version | Previous Version | Text Only | Print | Product List | Glossary On
Versions: 1 2 3 4 5 6 7 8 9 10 11 12 13 14 15 16 17 18 19 20 21 22 23 24 25 26 27
000
FTUS41 KBUF 221100
TAFART
TAF
KART 221129Z 2212/2312 00000KT 6SM BR BKN035
     FM221400 VRB03KT P6SM BKN035
     FM221700 VRB03KT P6SM VCSH SCT250
     FM222300 04006KT P6SM SCT250
     FM230300 08004KT P6SM SCT045
     FM230700 10004KT 3SM BR SCT015 OVC040=

USA.gov is the U.S. government's official web portal to all federal, state and local government web resources and services.